Time;durP1;ratioP1;P1;durP2;ratioP2;P2;SDS_P1;SDS_P2;PMS_P1;PMS_P2;Temp;Humidity;BMP_temperature;BMP_pressure;BME280_temperature;BME280_humidity;BME280_pressure;Samples;Min_cycle;Max_cycle;Signal;HPM_P1;HPM_P2
2021/05/06 00:34:19;;;;;;;13.52;7.07;;;;;;;15.66;61.29;100039.75;5005283;28;20037;-80
2021/05/06 00:37:05;;;;;;;15.38;7.28;;;;;;;15.60;61.44;100038.44;5020842;28;20037;-80
2021/05/06 00:40:02;;;;;;;15.43;6.85;;;;;;;15.53;61.51;100036.41;5018602;28;20077;-81
2021/05/06 01:12:56;;;;;;;11.00;5.72;;;;;;;15.07;63.74;100038.25;5000520;28;20072;-81
2021/05/06 01:16:00;;;;;;;10.55;4.47;;;;;;;15.00;63.63;100046.31;5017718;28;20049;-79
2021/05/06 01:18:45;;;;;;;19.60;5.10;;;;;;;14.86;64.31;100037.81;5019653;28;20544;-81
2021/05/06 01:21:30;;;;;;;;;;;;;;;14.83;64.16;100053.00;5018462;28;20045;-80
2021/05/06 01:24:15;;;;;;;7.93;4.50;;;;;;;14.76;63.97;100052.88;5017350;28;19913;-81
2021/05/06 01:27:08;;;;;;;;;;;;;;;14.80;63.65;100063.88;5020774;28;20045;-81
2021/05/06 01:30:05;;;;;;;9.90;4.38;;;;;;;14.85;63.33;100071.81;5017502;28;20377;-80
2021/05/06 01:32:54;;;;;;;11.50;5.38;;;;;;;14.85;63.33;100072.63;5020730;28;20049;-80
2021/05/06 02:00:53;;;;;;;17.15;7.10;;;;;;;14.25;63.76;100073.19;5021737;28;20556;-80
2021/05/06 02:03:41;;;;;;;15.13;7.63;;;;;;;14.14;64.50;100073.72;5012454;28;20053;-80
2021/05/06 02:09:46;;;;;;;14.23;7.28;;;;;;;14.11;65.15;100081.84;5025014;28;20517;-80
2021/05/06 02:12:32;;;;;;;14.80;7.18;;;;;;;14.12;64.82;100083.41;5022549;28;20421;-80
2021/05/06 02:15:25;;;;;;;12.98;6.45;;;;;;;14.08;65.21;100083.34;5019117;28;20045;-80
2021/05/06 02:18:10;;;;;;;19.05;7.13;;;;;;;14.21;64.99;100088.72;5020200;28;20048;-80
2021/05/06 02:20:56;;;;;;;17.10;7.13;;;;;;;14.22;64.74;100088.34;5022475;28;20092;-80
2021/05/06 02:23:41;;;;;;;12.50;6.82;;;;;;;14.00;65.59;100089.78;5018765;28;20052;-80
2021/05/06 02:26:26;;;;;;;26.38;8.13;;;;;;;14.09;65.26;100095.06;5012788;28;20402;-80
2021/05/06 02:29:12;;;;;;;9.75;7.25;;;;;;;14.11;65.22;100088.13;5021532;28;20292;-80
2021/05/06 02:31:58;;;;;;;14.43;8.93;;;;;;;14.23;65.18;100094.63;5022307;28;20535;-79
2021/05/06 02:34:45;;;;;;;16.77;7.80;;;;;;;14.09;65.48;100084.13;5011670;28;20056;-82
2021/05/06 02:37:30;;;;;;;11.23;7.45;;;;;;;13.97;66.47;100100.63;5023623;28;20060;-80
2021/05/06 02:40:15;;;;;;;13.05;5.95;;;;;;;14.01;66.42;100107.00;5021146;28;20068;-80
2021/05/06 02:43:00;;;;;;;;;;;;;;;13.92;67.02;100111.81;5018425;28;20429;-80
2021/05/06 02:45:45;;;;;;;11.00;6.82;;;;;;;13.96;66.79;100113.53;5022861;28;19913;-80
2021/05/06 02:48:30;;;;;;;;;;;;;;;13.96;66.88;100116.25;5021561;28;20044;-81
2021/05/06 02:51:15;;;;;;;14.73;7.45;;;;;;;14.14;66.17;100114.75;5020103;28;19913;-80
2021/05/06 02:54:00;;;;;;;11.38;6.30;;;;;;;14.07;66.81;100128.22;5045781;22;20049;-80
2021/05/06 03:05:31;;;;;;;13.05;5.20;;;;;;;13.94;65.37;100125.94;4976461;28;20050;-80
2021/05/06 03:08:38;;;;;;;8.73;5.00;;;;;;;13.78;64.68;100128.66;4989130;28;20050;-79
2021/05/06 03:11:45;;;;;;;8.20;5.68;;;;;;;13.65;64.84;100127.94;4994813;28;20414;-80
2021/05/06 03:23:54;;;;;;;3.92;2.30;;;;;;;13.55;63.46;100139.38;4992995;28;20418;-80
2021/05/06 03:27:18;;;;;;;2.35;1.90;;;;;;;13.66;62.61;100142.41;4977649;28;20048;-80
2021/05/06 04:16:44;;;;;;;4.28;0.80;;;;;;;13.67;58.29;100193.16;4975297;28;20045;-80
2021/05/06 04:25:35;;;;;;;2.38;0.95;;;;;;;13.84;57.17;100181.13;4994480;28;20053;-80
2021/05/06 04:26:17;;;;;;;0.88;0.70;;;;;;;13.78;57.21;100186.03;4993515;28;20049;-80
2021/05/06 04:29:35;;;;;;;2.22;1.20;;;;;;;13.81;58.67;100190.84;4988246;28;20045;-81
2021/05/06 04:35:42;;;;;;;2.40;1.00;;;;;;;14.06;57.61;100205.97;4992818;28;20049;-79
2021/05/06 04:38:11;;;;;;;0.88;0.70;;;;;;;14.10;57.77;100211.50;4984386;28;20045;-79
2021/05/06 05:05:18;;;;;;;3.05;2.33;;;;;;;14.48;57.68;100268.38;4974282;28;20058;-82
2021/05/06 05:08:22;;;;;;;4.82;1.15;;;;;;;14.45;57.55;100267.16;4983785;28;20044;-82
2021/05/06 05:26:06;;;;;;;7.05;1.42;;;;;;;14.70;57.47;100295.16;4996214;28;20413;-82
2021/05/06 05:29:11;;;;;;;2.80;0.93;;;;;;;14.78;56.56;100298.88;4990288;28;20061;-78
2021/05/06 05:31:57;;;;;;;3.53;1.52;;;;;;;14.81;57.24;100292.69;5001535;28;20045;-82
2021/05/06 05:35:04;;;;;;;5.25;0.90;;;;;;;14.84;56.48;100300.97;4992721;28;20049;-81
2021/05/06 05:44:05;;;;;;;2.30;0.77;;;;;;;14.80;56.37;100299.28;4991094;28;20049;-82
2021/05/06 05:55:47;;;;;;;2.75;0.90;;;;;;;14.79;54.66;100309.44;4968942;28;20065;-82
2021/05/06 06:01:35;;;;;;;8.68;0.90;;;;;;;15.02;54.39;100311.56;4982676;28;19914;-81
2021/05/06 06:04:20;;;;;;;2.15;0.50;;;;;;;14.93;54.54;100306.28;4978717;28;20521;-82
2021/05/06 06:07:06;;;;;;;1.73;0.77;;;;;;;14.91;55.04;100319.53;4982427;28;20050;-81
2021/05/06 06:10:10;;;;;;;1.33;0.50;;;;;;;15.04;54.11;100331.97;4980567;28;20061;-82
2021/05/06 06:12:55;;;;;;;7.50;2.00;;;;;;;15.01;53.88;100331.88;4963243;28;20046;-80
2021/05/06 06:18:52;;;;;;;2.40;0.50;;;;;;;15.04;53.38;100336.63;4978872;28;20049;-81
2021/05/06 06:24:22;;;;;;;;;;;;;;;15.07;52.51;100338.69;4979870;28;20516;-79
2021/05/06 06:27:08;;;;;;;7.10;1.10;;;;;;;15.07;52.33;100335.94;4978602;28;19918;-81
2021/05/06 06:29:53;;;;;;;2.80;0.60;;;;;;;15.07;53.57;100334.00;4975974;28;20054;-81
2021/05/06 06:32:38;;;;;;;;;;;;;;;15.22;53.50;100341.41;4980753;28;20406;-81
2021/05/06 06:35:22;;;;;;;5.65;0.80;;;;;;;15.18;52.51;100343.28;4976123;28;19913;-81
2021/05/06 06:38:07;;;;;;;;;;;;;;;15.26;52.35;100345.03;4977406;28;20406;-80
2021/05/06 06:40:52;;;;;;;1.17;0.60;;;;;;;15.29;52.02;100338.81;4980366;28;19913;-81
2021/05/06 06:46:42;;;;;;;2.22;0.70;;;;;;;15.38;51.59;100336.72;4976151;28;20046;-83
2021/05/06 06:49:35;;;;;;;2.17;0.88;;;;;;;15.36;52.32;100338.19;4979655;28;20054;-81
2021/05/06 06:52:21;;;;;;;3.58;0.73;;;;;;;15.40;51.14;100361.00;4986924;28;20057;-81
2021/05/06 06:55:06;;;;;;;;;;;;;;;15.36;49.11;100371.88;4995085;28;20421;-81
2021/05/06 06:57:51;;;;;;;1.03;0.60;;;;;;;15.39;50.94;100359.41;4999014;28;20305;-82
2021/05/06 07:00:36;;;;;;;6.00;0.80;;;;;;;15.35;49.15;100373.03;4996825;28;20053;-83
2021/05/06 07:03:24;;;;;;;3.40;0.57;;;;;;;15.41;51.15;100368.88;5000442;28;20053;-81
2021/05/06 07:06:09;;;;;;;3.50;0.70;;;;;;;15.45;49.68;100370.88;4999055;28;20050;-82
2021/05/06 07:08:55;;;;;;;2.42;0.80;;;;;;;15.50;51.11;100365.13;5000756;28;20049;-83
2021/05/06 07:11:40;;;;;;;2.03;0.73;;;;;;;15.55;49.16;100367.63;4995558;28;20049;-81
2021/05/06 07:14:43;;;;;;;1.98;0.70;;;;;;;15.53;48.19;100381.72;4997773;28;20422;-83
2021/05/06 07:17:29;;;;;;;9.77;0.85;;;;;;;15.34;47.94;100373.38;5000853;28;20053;-82
2021/05/06 07:23:20;;;;;;;3.05;0.80;;;;;;;15.54;48.78;100382.50;5000553;28;20081;-82
2021/05/06 07:26:06;;;;;;;3.92;0.50;;;;;;;15.70;49.46;100383.25;4986034;28;20042;-82
2021/05/06 07:28:52;;;;;;;12.13;0.80;;;;;;;16.04;47.44;100374.22;5000570;28;20057;-82
2021/05/06 07:31:37;;;;;;;4.03;1.23;;;;;;;16.24;46.14;100383.25;4997507;28;20221;-82
2021/05/06 07:34:22;;;;;;;;;;;;;;;16.11;46.95;100399.03;4998142;28;20057;-82
2021/05/06 07:37:07;;;;;;;3.00;0.60;;;;;;;15.94;46.92;100412.38;4994046;28;19914;-83
2021/05/06 07:39:52;;;;;;;8.18;0.70;;;;;;;15.75;46.32;100410.38;5000312;28;20045;-82
2021/05/06 07:42:39;;;;;;;1.73;0.82;;;;;;;15.92;46.54;100423.69;4999647;28;20061;-84
2021/05/06 07:45:24;;;;;;;7.40;1.52;;;;;;;15.76;47.02;100428.44;4994763;28;20053;-83
2021/05/06 07:48:09;;;;;;;2.40;1.05;;;;;;;15.90;47.40;100426.00;5000270;28;20045;-83
2021/05/06 07:50:54;;;;;;;4.85;0.55;;;;;;;15.64;46.75;100426.59;5000342;28;20081;-83
2021/05/06 07:54:05;;;;;;;6.00;0.52;;;;;;;15.75;47.03;100429.56;4999168;28;20516;-83
2021/05/06 07:56:50;;;;;;;4.03;0.75;;;;;;;15.76;48.21;100417.47;5000331;28;20053;-83
2021/05/06 07:59:54;;;;;;;;;;;;;;;16.05;46.92;100429.88;5000557;28;20073;-83
2021/05/06 08:02:41;;;;;;;6.97;0.93;;;;;;;16.34;47.86;100428.53;5000113;28;20370;-82
2021/05/06 08:05:45;;;;;;;5.60;0.90;;;;;;;16.34;47.69;100437.56;4994549;28;20053;-82
2021/05/06 08:08:31;;;;;;;5.00;0.60;;;;;;;16.26;47.33;100439.34;4999868;28;20045;-82
2021/05/06 08:11:58;;;;;;;2.63;0.52;;;;;;;16.13;47.77;100431.59;4993603;28;20057;-83
2021/05/06 08:14:43;;;;;;;5.45;1.10;;;;;;;16.08;48.51;100418.97;4976525;28;20053;-82
2021/05/06 08:17:28;;;;;;;2.75;0.50;;;;;;;16.07;48.54;100433.84;4980237;28;20054;-82
2021/05/06 08:20:13;;;;;;;;;;;;;;;16.26;48.60;100433.84;4980622;28;20053;-83
2021/05/06 08:22:58;;;;;;;26.33;1.52;;;;;;;16.34;48.47;100429.31;4980244;28;20529;-81
2021/05/06 08:25:43;;;;;;;14.15;1.05;;;;;;;16.50;48.23;100429.25;4973801;28;20049;-82
2021/05/06 08:28:28;;;;;;;16.27;1.73;;;;;;;16.59;47.45;100427.09;4980206;28;20046;-81
2021/05/06 08:31:13;;;;;;;;;;;;;;;16.78;47.75;100418.03;4979695;28;20054;-80
2021/05/06 08:37:40;;;;;;;5.57;1.35;;;;;;;16.97;47.86;100401.50;4980197;28;20050;-82
2021/05/06 08:40:25;;;;;;;4.60;1.00;;;;;;;17.09;46.81;100391.16;4965361;28;20050;-82
2021/05/06 08:43:11;;;;;;;5.13;0.85;;;;;;;17.08;45.81;100399.75;4973795;28;20058;-83
2021/05/06 08:45:58;;;;;;;3.90;1.00;;;;;;;17.19;46.98;100411.72;4980045;28;20049;-81
2021/05/06 08:48:43;;;;;;;2.22;0.77;;;;;;;17.27;47.05;100420.88;4980002;28;20082;-82
2021/05/06 08:51:32;;;;;;;;;;;;;;;17.24;47.15;100446.34;4976176;28;20061;-83
2021/05/06 08:54:17;;;;;;;3.72;0.70;;;;;;;17.03;46.57;100438.50;4980464;28;19914;-81
2021/05/06 08:56:47;;;;;;;6.93;1.00;;;;;;;16.93;47.18;100437.16;5046736;23;20052;-79
2021/05/06 08:59:32;;;;;;;3.20;0.82;;;;;;;16.85;46.65;100440.16;5031135;28;20061;-79
2021/05/06 09:02:18;;;;;;;8.88;1.30;;;;;;;16.64;47.60;100463.28;5028156;28;20061;-79
2021/05/06 09:05:05;;;;;;;4.28;0.82;;;;;;;16.46;47.13;100459.34;5024275;28;20413;-76
2021/05/06 09:07:51;;;;;;;6.53;1.00;;;;;;;16.53;47.58;100451.28;5027963;28;20049;-78
2021/05/06 09:10:58;;;;;;;8.00;1.10;;;;;;;16.47;47.50;100468.38;5022351;28;20560;-78
2021/05/06 09:13:42;;;;;;;9.68;2.20;;;;;;;16.43;47.51;100462.81;5025971;28;20052;-77
2021/05/06 09:16:38;;;;;;;2.88;0.75;;;;;;;16.35;47.44;100450.13;5021733;28;20053;-78
2021/05/06 09:19:24;;;;;;;11.75;1.42;;;;;;;16.22;48.00;100452.19;5020054;28;20414;-78
2021/05/06 09:22:09;;;;;;;9.18;1.63;;;;;;;16.11;47.60;100448.41;5023931;28;20076;-77
2021/05/06 09:24:53;;;;;;;;;;;;;;;16.27;47.83;100454.66;5021269;28;20045;-76
2021/05/06 09:27:39;;;;;;;6.68;1.02;;;;;;;16.21;48.02;100436.88;5018805;28;19917;-78
2021/05/06 09:30:24;;;;;;;1.33;0.68;;;;;;;16.32;47.83;100426.13;5021965;28;20049;-76
2021/05/06 09:33:09;;;;;;;2.00;0.75;;;;;;;16.62;46.97;100427.16;5019780;28;20053;-77
2021/05/06 09:35:56;;;;;;;3.45;0.90;;;;;;;16.78;47.22;100434.50;5017511;28;20049;-76
2021/05/06 09:39:00;;;;;;;4.50;1.60;;;;;;;16.88;45.96;100439.41;5006164;28;20053;-75
2021/05/06 09:41:45;;;;;;;9.13;1.45;;;;;;;17.02;46.13;100445.97;5017535;28;20046;-75
2021/05/06 09:44:50;;;;;;;8.32;1.30;;;;;;;16.86;46.49;100436.25;5016105;28;20053;-76
2021/05/06 09:47:53;;;;;;;6.20;1.10;;;;;;;16.84;46.17;100441.31;5019323;28;20532;-76
2021/05/06 09:51:04;;;;;;;8.30;1.73;;;;;;;16.84;46.28;100436.59;5020938;28;20061;-77
2021/05/06 09:53:55;;;;;;;4.53;1.17;;;;;;;16.79;46.12;100441.59;5026070;28;20053;-77
2021/05/06 09:56:42;;;;;;;5.15;1.45;;;;;;;16.76;46.14;100437.63;5024207;28;20056;-78
2021/05/06 09:59:29;;;;;;;4.72;1.13;;;;;;;16.68;46.51;100452.38;5031474;28;20057;-78
2021/05/06 10:02:17;;;;;;;8.10;1.40;;;;;;;16.67;45.51;100457.06;5028871;28;20049;-79
2021/05/06 10:05:10;;;;;;;6.18;2.00;;;;;;;16.78;45.71;100443.56;5025562;28;20056;-79
2021/05/06 10:07:55;;;;;;;5.07;0.90;;;;;;;17.02;46.07;100445.16;5030241;28;20052;-79
2021/05/06 10:10:41;;;;;;;3.53;1.08;;;;;;;17.04;45.37;100451.09;5027188;28;20057;-78
2021/05/06 10:13:27;;;;;;;6.07;1.10;;;;;;;17.08;45.41;100439.00;5025256;28;20056;-78
2021/05/06 10:16:14;;;;;;;3.72;1.17;;;;;;;17.04;45.37;100459.34;5024721;28;20045;-79
2021/05/06 10:18:59;;;;;;;4.72;1.02;;;;;;;17.13;45.37;100448.09;5026091;28;20068;-79
2021/05/06 10:22:02;;;;;;;18.88;1.48;;;;;;;17.30;44.56;100442.94;5024489;28;20049;-78
2021/05/06 10:24:49;;;;;;;12.90;2.25;;;;;;;17.53;44.17;100467.66;5027172;28;20057;-78
2021/05/06 10:27:34;;;;;;;6.13;1.45;;;;;;;17.68;44.05;100453.00;5025001;28;20045;-78
2021/05/06 10:30:21;;;;;;;6.47;1.70;;;;;;;17.81;43.89;100459.09;5022271;28;20053;-79
2021/05/06 10:33:07;;;;;;;2.70;1.20;;;;;;;17.88;43.43;100448.97;5025451;28;20048;-78
2021/05/06 10:35:54;;;;;;;2.95;1.10;;;;;;;17.96;43.95;100430.63;5022771;28;20061;-78
2021/05/06 10:38:42;;;;;;;4.78;1.90;;;;;;;18.04;43.60;100428.75;5024119;28;20041;-79
2021/05/06 10:41:34;;;;;;;10.52;1.40;;;;;;;18.12;43.20;100424.94;5027957;28;20060;-79
2021/05/06 10:44:19;;;;;;;3.55;1.92;;;;;;;18.11;44.06;100413.13;5024268;28;20049;-79
2021/05/06 10:50:09;;;;;;;6.82;1.50;;;;;;;18.33;43.51;100412.25;5024320;28;20044;-78
2021/05/06 10:52:55;;;;;;;4.95;1.05;;;;;;;18.48;42.93;100393.94;5020486;28;20057;-78
2021/05/06 10:56:01;;;;;;;2.92;1.25;;;;;;;18.45;42.00;100388.38;5020596;28;20053;-78
2021/05/06 10:58:46;;;;;;;6.35;2.05;;;;;;;18.53;42.04;100387.31;5020167;28;20053;-78
2021/05/06 11:01:40;;;;;;;3.85;1.52;;;;;;;18.43;42.42;100375.00;5017206;28;20045;-76
2021/05/06 11:04:43;;;;;;;4.00;1.10;;;;;;;18.46;42.55;100368.72;5020715;28;20057;-78
2021/05/06 11:08:05;;;;;;;5.82;1.50;;;;;;;18.49;42.69;100361.69;5015811;28;20508;-79
2021/05/06 11:10:50;;;;;;;2.22;1.08;;;;;;;18.53;42.40;100360.56;5019161;28;20057;-77
2021/05/06 11:13:54;;;;;;;;;;;;;;;18.83;41.99;100366.00;5018224;28;20049;-76
2021/05/06 11:16:39;;;;;;;6.25;1.40;;;;;;;18.87;42.61;100374.28;5015030;28;19913;-79
2021/05/06 11:19:42;;;;;;;5.72;1.20;;;;;;;19.14;42.52;100384.00;5000740;28;20073;-78
2021/05/06 11:22:44;;;;;;;3.58;1.10;;;;;;;18.77;41.27;100390.34;5011566;28;20044;-77
2021/05/06 11:25:38;;;;;;;9.27;1.67;;;;;;;18.99;41.26;100385.84;5016372;28;20044;-77
2021/05/06 11:28:42;;;;;;;8.80;1.40;;;;;;;18.86;41.68;100392.78;5020281;28;20045;-79
2021/05/06 11:31:48;;;;;;;9.63;1.40;;;;;;;18.97;40.83;100393.69;5023924;28;20045;-81
2021/05/06 11:34:40;;;;;;;;;;;;;;;19.13;41.93;100390.69;5018537;28;20413;-78
2021/05/06 11:37:27;;;;;;;6.18;1.20;;;;;;;19.17;41.59;100383.22;5024301;28;19913;-78
2021/05/06 11:43:47;;;;;;;5.07;2.00;;;;;;;19.16;42.07;100378.88;5015651;28;20435;-78
2021/05/06 11:46:43;;;;;;;4.60;1.27;;;;;;;19.18;40.88;100373.78;5014647;28;20041;-79
2021/05/06 11:49:28;;;;;;;3.50;1.08;;;;;;;19.26;41.46;100388.41;5014786;28;20057;-79
2021/05/06 11:52:13;;;;;;;6.60;1.83;;;;;;;19.26;41.06;100380.94;5019449;28;20048;-79
2021/05/06 11:54:58;;;;;;;4.97;1.40;;;;;;;19.37;42.21;100384.56;5015872;28;20525;-78
2021/05/06 11:57:48;;;;;;;3.70;1.08;;;;;;;19.40;41.96;100394.81;5015537;28;20049;-79
2021/05/06 12:03:40;;;;;;;5.40;1.67;;;;;;;19.76;41.53;100389.59;5014149;28;20064;-78
2021/05/06 12:06:33;;;;;;;7.25;1.90;;;;;;;19.66;41.36;100390.34;5012620;28;20057;-78
2021/05/06 12:09:30;;;;;;;5.03;1.50;;;;;;;19.80;41.05;100384.91;5015010;28;20041;-78
2021/05/06 12:12:22;;;;;;;5.57;1.60;;;;;;;19.74;40.89;100367.91;4994822;28;20057;-78
2021/05/06 12:15:08;;;;;;;5.85;1.17;;;;;;;20.02;41.93;100356.22;4996943;28;20041;-78
2021/05/06 12:18:15;;;;;;;5.20;2.13;;;;;;;20.02;40.62;100350.69;5001767;28;20057;-79
2021/05/06 12:21:04;;;;;;;3.60;1.40;;;;;;;20.00;41.00;100348.34;5021889;28;20064;-79
2021/05/06 12:23:49;;;;;;;4.18;1.80;;;;;;;19.99;41.56;100349.50;5023593;28;20045;-79
2021/05/06 12:26:35;;;;;;;4.15;1.40;;;;;;;19.73;41.86;100341.50;5018607;28;20441;-79
2021/05/06 12:29:22;;;;;;;5.20;1.50;;;;;;;19.74;41.24;100328.50;5015601;28;20049;-78
2021/05/06 12:32:22;;;;;;;8.98;1.50;;;;;;;19.85;41.42;100321.06;5018073;28;20057;-78
2021/05/06 12:35:26;;;;;;;6.88;1.60;;;;;;;19.96;41.79;100330.19;5015416;28;20053;-78
2021/05/06 12:38:11;;;;;;;11.07;2.00;;;;;;;19.72;41.36;100319.78;5019913;28;20045;-78
2021/05/06 12:40:56;;;;;;;;;;;;;;;19.74;41.97;100307.22;5017531;28;20064;-78
2021/05/06 12:43:49;;;;;;;6.75;2.17;;;;;;;19.97;41.80;100295.84;5014522;28;19917;-78
2021/05/06 12:46:35;;;;;;;4.10;1.38;;;;;;;19.93;41.90;100298.63;5014531;28;20041;-77
2021/05/06 12:49:42;;;;;;;7.10;1.70;;;;;;;19.87;41.11;100291.88;5004937;28;20053;-78
2021/05/06 12:52:36;;;;;;;9.40;1.50;;;;;;;19.71;41.83;100293.41;5021100;28;20453;-79
2021/05/06 12:55:29;;;;;;;7.05;1.70;;;;;;;20.05;40.78;100280.91;5022038;28;20053;-79
2021/05/06 12:58:25;;;;;;;4.63;1.60;;;;;;;20.10;40.30;100275.03;5019026;28;20045;-79
2021/05/06 13:01:13;;;;;;;11.45;2.10;;;;;;;19.97;41.42;100280.09;5021024;28;20045;-78
2021/05/06 13:04:02;;;;;;;3.60;1.35;;;;;;;19.90;41.14;100290.34;5019406;28;20045;-78
2021/05/06 13:06:46;;;;;;;5.65;1.45;;;;;;;19.91;41.67;100287.16;5017707;28;20049;-78
2021/05/06 13:15:49;;;;;;;11.05;1.60;;;;;;;20.07;40.70;100284.06;5011744;28;20418;-80
2021/05/06 13:18:35;;;;;;;9.00;2.58;;;;;;;20.01;41.35;100275.38;5010558;28;20233;-79
2021/05/06 13:21:22;;;;;;;7.55;1.50;;;;;;;19.83;40.95;100273.72;5010543;28;20524;-79
2021/05/06 13:24:07;;;;;;;9.00;1.70;;;;;;;19.86;41.06;100272.97;5012419;28;20045;-78
2021/05/06 13:26:53;;;;;;;8.73;1.60;;;;;;;19.73;42.82;100257.94;5011323;28;20521;-78
2021/05/06 13:29:47;;;;;;;6.70;1.58;;;;;;;20.04;41.15;100260.00;5007542;28;20042;-78
2021/05/06 13:32:55;;;;;;;4.75;2.13;;;;;;;19.86;41.34;100268.22;5015106;28;20049;-78
2021/05/06 13:35:40;;;;;;;4.78;1.60;;;;;;;19.67;42.28;100256.72;5017619;28;20555;-80
2021/05/06 13:39:04;;;;;;;9.68;1.70;;;;;;;19.41;41.86;100266.00;5016841;28;20406;-77
2021/05/06 13:41:49;;;;;;;5.97;1.75;;;;;;;19.66;41.69;100263.44;5012844;28;20057;-77
2021/05/06 13:44:55;;;;;;;7.85;1.80;;;;;;;19.61;42.77;100259.84;5014894;28;20056;-76
2021/05/06 13:47:59;;;;;;;9.68;1.92;;;;;;;19.70;42.43;100256.75;5018315;28;20065;-77
2021/05/06 13:51:03;;;;;;;17.33;4.45;;;;;;;19.70;42.43;100255.94;5021160;28;20056;-77
2021/05/06 13:53:49;;;;;;;21.73;5.32;;;;;;;19.58;42.78;100235.00;5018329;28;20401;-77
2021/05/06 13:56:35;;;;;;;15.50;2.97;;;;;;;19.56;42.83;100231.84;5015167;28;20064;-77
2021/05/06 13:59:20;;;;;;;;;;;;;;;19.46;43.38;100230.63;5020859;28;20045;-75
2021/05/06 14:02:07;;;;;;;9.63;1.97;;;;;;;19.49;42.95;100224.34;5016845;28;19917;-76
2021/05/06 14:04:51;;;;;;;9.50;1.80;;;;;;;19.50;42.85;100239.72;5015500;28;20848;-76
2021/05/06 14:07:36;;;;;;;;;;;;;;;19.44;42.32;100230.22;5019854;28;20053;-76
2021/05/06 14:10:21;;;;;;;11.30;2.40;;;;;;;19.26;43.28;100212.75;5017423;28;20052;-76
2021/05/06 14:13:06;;;;;;;9.23;2.13;;;;;;;19.30;43.24;100212.78;5016075;28;20406;-77
2021/05/06 14:15:51;;;;;;;8.65;2.20;;;;;;;19.29;43.46;100211.19;5016911;28;20052;-77
2021/05/06 14:18:38;;;;;;;14.68;2.95;;;;;;;19.36;43.46;100208.47;5017965;28;20390;-77
2021/05/06 14:21:25;;;;;;;12.98;2.22;;;;;;;19.32;42.99;100226.97;5015368;28;20056;-77
2021/05/06 14:24:11;;;;;;;6.82;2.25;;;;;;;19.24;43.11;100217.88;5019352;28;20053;-77
2021/05/06 14:26:59;;;;;;;17.73;2.60;;;;;;;19.26;43.11;100218.25;5017515;28;20401;-77
2021/05/06 14:29:44;;;;;;;15.85;2.35;;;;;;;19.27;43.55;100208.81;5015095;28;20041;-76
2021/05/06 14:32:29;;;;;;;;;;;;;;;19.17;43.62;100190.25;5019667;28;20418;-77
2021/05/06 14:35:15;;;;;;;11.57;3.10;;;;;;;19.04;44.36;100183.50;5002333;28;19914;-77
2021/05/06 14:38:00;;;;;;;8.35;2.38;;;;;;;19.22;43.68;100187.13;5015139;28;20398;-77
2021/05/06 14:40:45;;;;;;;13.75;2.97;;;;;;;19.16;43.74;100191.44;5004080;28;20049;-76
2021/05/06 14:43:31;;;;;;;9.07;1.80;;;;;;;19.12;43.73;100199.69;5017167;28;20048;-77
2021/05/06 14:46:16;;;;;;;11.02;2.47;;;;;;;19.19;44.16;100207.22;5015622;28;20422;-76
2021/05/06 14:49:01;;;;;;;13.68;2.60;;;;;;;19.10;43.64;100182.75;5019020;28;20049;-77
2021/05/06 14:51:46;;;;;;;10.70;3.03;;;;;;;19.09;43.78;100181.19;5017363;28;20060;-77
2021/05/06 14:57:35;;;;;;;12.88;2.85;;;;;;;19.11;43.90;100178.81;5079740;23;20052;-77
2021/05/06 15:00:21;;;;;;;9.35;1.83;;;;;;;19.11;44.17;100173.31;5079753;28;20428;-77
2021/05/06 15:03:08;;;;;;;8.57;2.78;;;;;;;19.15;44.14;100167.78;5078170;28;20051;-77
2021/05/06 15:05:53;;;;;;;26.13;3.53;;;;;;;19.03;44.49;100168.94;5074458;28;20067;-77
2021/05/06 15:08:42;;;;;;;6.90;1.85;;;;;;;19.06;44.71;100170.91;5078920;28;20439;-77
2021/05/06 15:15:09;;;;;;;5.55;2.85;;;;;;;18.95;44.87;100161.00;5078281;28;20048;-77
2021/05/06 15:17:57;;;;;;;7.38;2.05;;;;;;;18.83;44.94;100167.63;5073688;28;20047;-77
2021/05/06 15:20:43;;;;;;;6.65;2.13;;;;;;;18.70;45.43;100156.13;5073501;28;20044;-77
2021/05/06 15:23:28;;;;;;;8.32;1.85;;;;;;;18.65;45.38;100150.97;5077796;28;20507;-77
2021/05/06 15:26:13;;;;;;;5.85;2.40;;;;;;;18.74;45.64;100148.66;5076403;28;20497;-77
2021/05/06 15:28:58;;;;;;;;;;;;;;;18.77;45.24;100152.63;5074270;28;20043;-77
2021/05/06 15:31:42;;;;;;;11.85;2.05;;;;;;;18.76;45.39;100160.09;5077700;28;19916;-77
2021/05/06 15:37:31;;;;;;;7.55;1.73;;;;;;;18.63;45.80;100166.31;5079772;28;19912;-77
2021/05/06 15:40:16;;;;;;;6.40;1.73;;;;;;;18.63;46.36;100163.56;5077600;28;20056;-77
2021/05/06 15:43:01;;;;;;;;;;;;;;;18.67;45.82;100159.66;5076079;28;20056;-77
2021/05/06 15:45:46;;;;;;;8.05;2.40;;;;;;;18.55;46.06;100148.94;5072385;28;19912;-77
2021/05/06 15:48:31;;;;;;;;;;;;;;;18.49;46.48;100164.19;5078194;28;20114;-77
2021/05/06 15:51:16;;;;;;;10.30;2.75;;;;;;;18.56;46.06;100166.25;5076280;28;20287;-77
2021/05/06 15:54:01;;;;;;;;;;;;;;;18.60;46.39;100165.09;5073600;28;20055;-77
2021/05/06 15:56:45;;;;;;;5.85;2.13;;;;;;;18.49;46.59;100158.69;5075568;28;19913;-77
2021/05/06 15:59:31;;;;;;;3.78;1.60;;;;;;;18.38;46.66;100150.38;5075816;28;20039;-77
2021/05/06 16:02:16;;;;;;;6.55;2.65;;;;;;;18.39;46.73;100151.13;5073146;28;20051;-76
2021/05/06 16:05:04;;;;;;;9.40;2.58;;;;;;;18.50;46.94;100141.00;5077236;28;20055;-77
2021/05/06 16:07:50;;;;;;;4.90;1.50;;;;;;;18.39;46.92;100146.44;5072569;28;20039;-77
2021/05/06 16:10:54;;;;;;;8.93;2.30;;;;;;;18.35;47.17;100142.88;5079645;28;20051;-77
2021/05/06 16:14:00;;;;;;;13.50;1.80;;;;;;;18.34;47.54;100149.53;5081967;28;20059;-77
2021/05/06 16:16:45;;;;;;;7.57;2.22;;;;;;;18.37;47.73;100139.75;5081797;28;20059;-77
2021/05/06 16:19:30;;;;;;;6.60;1.63;;;;;;;18.40;47.81;100141.72;5086468;28;20043;-77
2021/05/06 16:22:34;;;;;;;6.70;1.80;;;;;;;18.33;47.77;100139.72;5085390;28;20068;-77
2021/05/06 16:25:38;;;;;;;12.70;2.53;;;;;;;18.23;48.34;100134.13;5062355;28;20572;-78
2021/05/06 16:28:43;;;;;;;7.70;1.70;;;;;;;18.26;48.35;100136.91;5066367;28;20043;-78
2021/05/06 16:31:29;;;;;;;6.35;1.45;;;;;;;18.34;48.64;100123.97;5066807;28;20047;-78
2021/05/06 16:34:20;;;;;;;9.30;2.13;;;;;;;18.39;48.48;100123.59;5086458;28;20055;-78
2021/05/06 16:46:01;;;;;;;6.50;2.28;;;;;;;18.41;48.40;100113.00;5072418;28;20092;-79
2021/05/06 16:49:06;;;;;;;6.07;2.30;;;;;;;18.32;48.45;100109.81;5087480;28;20048;-79
2021/05/06 16:51:52;;;;;;;8.45;2.35;;;;;;;18.30;48.25;100103.88;5088836;28;20043;-78
2021/05/06 16:54:37;;;;;;;5.78;1.70;;;;;;;18.32;48.12;100104.31;5069005;28;20047;-79
2021/05/06 16:57:40;;;;;;;;;;;;;;;18.26;48.25;100097.56;5072738;28;20048;-79
2021/05/06 17:00:26;;;;;;;11.43;2.10;;;;;;;18.10;49.00;100108.06;5071440;28;19913;-78
2021/05/06 17:03:11;;;;;;;;;;;;;;;18.05;49.31;100108.41;5067473;28;20247;-77
2021/05/06 17:06:14;;;;;;;9.50;2.10;;;;;;;18.08;49.15;100113.91;5065224;28;19913;-77
2021/05/06 17:09:00;;;;;;;8.35;2.13;;;;;;;18.12;49.22;100123.03;5052742;28;20068;-77
2021/05/06 17:12:06;;;;;;;14.48;2.35;;;;;;;18.04;49.42;100121.38;5052423;28;20412;-77
2021/05/06 17:14:51;;;;;;;7.55;1.88;;;;;;;18.03;49.11;100124.50;5056122;28;20082;-77
2021/05/06 17:17:54;;;;;;;8.05;2.95;;;;;;;17.87;49.28;100122.81;5055290;28;20056;-76
2021/05/06 17:20:39;;;;;;;4.95;2.00;;;;;;;17.90;49.45;100127.53;5059830;28;20064;-77
2021/05/06 17:23:24;;;;;;;13.48;2.42;;;;;;;17.86;49.61;100137.72;5068062;28;20047;-77
2021/05/06 17:26:09;;;;;;;7.63;1.98;;;;;;;17.66;50.33;100143.78;5080242;28;20052;-77
2021/05/06 17:28:54;;;;;;;5.38;2.25;;;;;;;17.68;50.21;100147.72;5070445;28;20048;-77
2021/05/06 17:31:40;;;;;;;17.30;1.95;;;;;;;17.52;50.70;100141.66;5073751;28;20052;-77
2021/05/06 17:34:25;;;;;;;6.70;2.00;;;;;;;17.46;50.53;100141.19;5087368;28;20047;-77
2021/05/06 17:37:10;;;;;;;;;;;;;;;17.27;50.90;100137.81;5082608;28;20055;-77
2021/05/06 17:39:55;;;;;;;8.60;2.13;;;;;;;17.48;50.55;100149.84;5081621;28;19912;-77
2021/05/06 17:42:41;;;;;;;5.22;2.08;;;;;;;17.42;50.99;100145.06;5077949;28;20048;-77
2021/05/06 17:45:44;;;;;;;8.25;2.22;;;;;;;17.47;50.65;100144.75;5083695;28;20044;-78